Time;durP1;ratioP1;P1;durP2;ratioP2;P2;SDS_P1;SDS_P2;PMS_P1;PMS_P2;Temp;Humidity;BMP_temperature;BMP_pressure;BME280_temperature;BME280_humidity;BME280_pressure;Samples;Min_cycle;Max_cycle;Signal;HPM_P1;HPM_P2
2023/02/11 00:01:22;;;;;;;35.80;26.50;;;6.30;99.90;;;;;;5049720;28;20479;-73
2023/02/11 00:03:50;;;;;;;33.30;23.17;;;6.20;99.90;;;;;;5052810;28;20510;-72
2023/02/11 00:06:17;;;;;;;36.73;25.07;;;6.20;99.90;;;;;;5051724;28;20458;-71
2023/02/11 00:08:43;;;;;;;35.00;26.00;;;6.10;99.90;;;;;;5050423;28;20474;-70
2023/02/11 00:11:15;;;;;;;35.33;26.33;;;6.10;99.90;;;;;;5060449;28;20556;-69
2023/02/11 00:13:43;;;;;;;46.00;30.30;;;6.00;99.90;;;;;;5059314;28;20474;-70
2023/02/11 00:16:12;;;;;;;32.30;24.97;;;6.00;99.90;;;;;;5058504;28;20803;-70
2023/02/11 00:18:39;;;;;;;33.30;27.20;;;6.00;99.90;;;;;;5053080;28;20507;-71
2023/02/11 00:21:07;;;;;;;34.47;25.83;;;5.90;99.90;;;;;;5055089;28;20463;-73
2023/02/11 00:23:34;;;;;;;36.80;24.70;;;5.90;99.90;;;;;;5068536;28;21005;-72
2023/02/11 00:26:01;;;;;;;38.87;25.77;;;5.90;99.90;;;;;;5055999;28;20722;-71
2023/02/11 00:28:30;;;;;;;36.13;25.63;;;5.80;99.90;;;;;;5055340;28;20811;-71
2023/02/11 00:31:12;;;;;;;34.30;24.43;;;5.80;99.90;;;;;;5056574;28;20498;-72
2023/02/11 00:33:39;;;;;;;27.87;21.63;;;5.80;99.90;;;;;;5055691;28;20461;-72
2023/02/11 00:36:08;;;;;;;39.17;26.40;;;5.80;99.90;;;;;;5056258;28;20475;-72
2023/02/11 00:38:35;;;;;;;37.17;26.77;;;5.80;99.90;;;;;;5058581;28;20953;-72
2023/02/11 00:41:02;;;;;;;37.93;27.07;;;5.70;99.90;;;;;;5058778;28;20952;-73
2023/02/11 00:43:31;;;;;;;40.37;25.87;;;5.70;99.90;;;;;;5060421;28;20829;-71
2023/02/11 00:45:58;;;;;;;35.10;26.03;;;5.70;99.90;;;;;;5062451;28;20471;-70
2023/02/11 00:48:25;;;;;;;41.00;27.40;;;5.70;99.90;;;;;;5051466;28;20937;-70
2023/02/11 00:50:52;;;;;;;43.77;27.93;;;5.60;99.90;;;;;;5061143;28;20478;-73
2023/02/11 00:53:19;;;;;;;43.27;27.10;;;5.70;99.90;;;;;;5051202;28;20877;-70
2023/02/11 00:55:46;;;;;;;44.67;27.60;;;5.70;99.90;;;;;;5057762;28;20455;-71
2023/02/11 00:58:13;;;;;;;35.73;25.50;;;5.70;99.90;;;;;;5057822;28;20804;-69
2023/02/11 01:00:41;;;;;;;36.53;26.07;;;5.70;99.90;;;;;;5059565;28;20489;-70
2023/02/11 01:03:08;;;;;;;46.50;28.77;;;5.80;99.90;;;;;;5063533;28;20760;-69
2023/02/11 01:05:35;;;;;;;41.00;26.17;;;5.80;99.90;;;;;;5053994;28;20560;-71
2023/02/11 01:08:01;;;;;;;38.73;26.13;;;5.80;99.90;;;;;;5053517;28;20465;-72
2023/02/11 01:10:28;;;;;;;39.60;26.03;;;5.80;99.90;;;;;;5058704;28;20477;-72
2023/02/11 01:12:55;;;;;;;40.30;28.23;;;5.90;99.90;;;;;;5051102;28;20864;-70
2023/02/11 01:15:22;;;;;;;44.50;29.30;;;5.90;99.90;;;;;;5054539;28;20815;-69
2023/02/11 01:17:50;;;;;;;39.17;28.47;;;5.90;99.90;;;;;;5057436;28;20459;-72
2023/02/11 01:20:20;;;;;;;49.00;27.73;;;5.90;99.90;;;;;;5058031;28;20489;-73
2023/02/11 01:22:47;;;;;;;32.67;22.70;;;5.90;99.90;;;;;;5057896;28;20455;-71
2023/02/11 01:25:14;;;;;;;42.13;27.07;;;5.80;99.90;;;;;;5049384;28;20460;-71
2023/02/11 01:27:41;;;;;;;42.73;27.47;;;5.80;99.90;;;;;;5062315;28;20859;-71
2023/02/11 01:30:24;;;;;;;39.80;25.17;;;5.80;99.90;;;;;;5059357;28;20451;-71
2023/02/11 01:32:52;;;;;;;39.90;27.70;;;5.90;99.90;;;;;;5064610;28;20573;-70
2023/02/11 01:35:19;;;;;;;40.63;28.53;;;5.80;99.90;;;;;;5051943;28;20547;-72
2023/02/11 01:37:45;;;;;;;40.50;27.30;;;5.90;99.90;;;;;;5056148;28;20459;-70
2023/02/11 01:40:14;;;;;;;42.13;26.57;;;5.80;99.90;;;;;;5051202;28;20452;-73
2023/02/11 01:42:43;;;;;;;44.30;26.70;;;5.80;99.90;;;;;;5061594;28;20489;-72
2023/02/11 01:45:53;;;;;;;34.57;25.47;;;5.80;99.90;;;;;;5056228;28;21019;-70
2023/02/11 01:48:28;;;;;;;43.57;27.50;;;5.80;99.90;;;;;;5054295;28;20459;-71
2023/02/11 01:50:59;;;;;;;42.60;27.03;;;5.80;99.90;;;;;;5062187;28;20499;-72
2023/02/11 01:59:02;;;;;;;41.73;27.23;;;5.90;99.90;;;;;;5053041;28;20474;-71
2023/02/11 02:01:34;;;;;;;43.63;27.97;;;5.90;99.90;;;;;;5056296;28;20939;-71
2023/02/11 02:04:04;;;;;;;36.60;25.30;;;5.90;99.90;;;;;;5054005;28;20539;-72
2023/02/11 02:06:35;;;;;;;40.00;23.67;;;5.90;99.90;;;;;;5050962;28;20459;-72
2023/02/11 02:09:05;;;;;;;48.27;27.07;;;5.90;99.90;;;;;;5060028;28;20456;-70
2023/02/11 02:11:32;;;;;;;41.53;26.03;;;5.90;99.90;;;;;;5060698;28;20493;-71
2023/02/11 02:13:59;;;;;;;39.37;24.93;;;5.90;99.90;;;;;;5058162;28;20469;-70
2023/02/11 02:16:30;;;;;;;34.27;24.93;;;5.90;99.90;;;;;;5059414;28;20471;-71
2023/02/11 02:19:19;;;;;;;40.73;27.53;;;5.70;99.90;;;;;;5054555;28;21095;-73
2023/02/11 02:22:06;;;;;;;39.00;26.70;;;5.70;99.90;;;;;;5051798;28;20463;-70
2023/02/11 02:24:55;;;;;;;40.83;24.60;;;5.70;99.90;;;;;;5056107;28;20468;-72
2023/02/11 02:27:36;;;;;;;39.13;24.80;;;5.60;99.90;;;;;;5055816;28;20462;-70
2023/02/11 02:30:33;;;;;;;42.57;23.10;;;5.60;99.90;;;;;;5051325;28;20829;-69
2023/02/11 02:33:36;;;;;;;35.37;21.23;;;5.50;99.90;;;;;;5050875;28;20488;-71
2023/02/11 02:36:11;;;;;;;39.07;23.83;;;5.60;99.90;;;;;;5042121;28;20945;-71
2023/02/11 02:38:43;;;;;;;38.83;24.13;;;5.60;99.90;;;;;;5057299;28;20458;-73
2023/02/11 02:41:13;;;;;;;36.57;24.87;;;5.60;99.90;;;;;;5056101;28;20499;-70
2023/02/11 02:43:43;;;;;;;40.07;24.30;;;5.70;99.90;;;;;;5053829;28;20554;-72
2023/02/11 02:46:13;;;;;;;37.90;24.67;;;5.70;99.90;;;;;;5061805;28;20466;-71
2023/02/11 02:48:42;;;;;;;34.53;22.67;;;5.60;99.90;;;;;;5053989;28;20469;-69
2023/02/11 02:51:21;;;;;;;39.30;20.20;;;5.60;99.90;;;;;;5052503;28;21415;-72
2023/02/11 02:53:59;;;;;;;39.43;24.50;;;5.60;99.90;;;;;;5056463;28;20466;-70
2023/02/11 02:56:37;;;;;;;36.83;21.50;;;5.60;99.90;;;;;;5055879;28;20488;-70
2023/02/11 02:59:24;;;;;;;38.47;22.80;;;5.60;99.90;;;;;;5053454;28;20475;-73
2023/02/11 03:01:59;;;;;;;29.03;18.00;;;5.70;99.90;;;;;;5060060;28;20919;-72
2023/02/11 03:04:33;;;;;;;40.00;23.53;;;5.70;99.90;;;;;;5062364;28;20473;-71
2023/02/11 03:07:05;;;;;;;37.03;23.77;;;5.80;99.90;;;;;;5053275;28;20465;-73
2023/02/11 03:09:39;;;;;;;36.87;23.73;;;5.80;99.90;;;;;;5057121;28;20454;-71
2023/02/11 03:12:07;;;;;;;35.57;23.63;;;5.80;99.90;;;;;;5056768;28;20478;-73
2023/02/11 03:14:35;;;;;;;36.33;22.57;;;5.90;99.90;;;;;;5053673;28;21145;-72
2023/02/11 03:17:05;;;;;;;31.53;23.70;;;6.00;99.90;;;;;;5058047;28;20987;-73
2023/02/11 03:19:37;;;;;;;36.00;24.20;;;6.00;99.90;;;;;;5055907;28;20447;-70
2023/02/11 03:22:07;;;;;;;38.97;23.50;;;6.00;99.90;;;;;;5056040;28;20478;-72
2023/02/11 03:24:36;;;;;;;44.97;24.27;;;6.10;99.90;;;;;;5052786;28;20468;-70
2023/02/11 03:27:10;;;;;;;31.40;17.77;;;6.10;99.90;;;;;;5050733;28;20460;-69
2023/02/11 03:29:42;;;;;;;34.40;22.90;;;6.00;99.90;;;;;;5051086;28;20472;-69
2023/02/11 03:32:16;;;;;;;29.60;21.00;;;6.00;99.90;;;;;;5059056;28;20486;-70
2023/02/11 03:34:49;;;;;;;37.57;25.43;;;6.00;99.90;;;;;;5062159;28;20469;-71
2023/02/11 03:37:20;;;;;;;32.77;22.40;;;6.10;99.90;;;;;;5054887;28;20478;-73
2023/02/11 03:39:51;;;;;;;31.10;19.63;;;6.10;99.90;;;;;;5054712;28;20550;-71
2023/02/11 03:42:19;;;;;;;35.57;22.00;;;6.20;99.90;;;;;;5052847;28;20491;-69
2023/02/11 03:44:49;;;;;;;34.33;22.33;;;6.10;99.90;;;;;;5052292;28;20479;-69
2023/02/11 03:47:21;;;;;;;50.70;22.00;;;6.10;99.90;;;;;;5057654;28;20552;-69
2023/02/11 03:49:51;;;;;;;33.63;20.20;;;6.10;99.90;;;;;;5054355;28;21063;-71
2023/02/11 03:52:21;;;;;;;35.20;22.57;;;6.10;99.90;;;;;;5055564;28;20572;-72
2023/02/11 03:54:52;;;;;;;35.97;19.60;;;6.10;99.90;;;;;;5049810;28;20513;-69
2023/02/11 03:57:20;;;;;;;28.10;17.30;;;6.10;99.90;;;;;;5050528;28;20466;-71
2023/02/11 03:59:52;;;;;;;33.33;21.40;;;6.00;99.90;;;;;;5050300;28;20850;-72
2023/02/11 04:02:20;;;;;;;36.10;21.90;;;6.00;99.90;;;;;;5057139;28;20481;-72
2023/02/11 04:04:49;;;;;;;31.43;18.17;;;6.10;99.90;;;;;;5062490;28;21056;-71
2023/02/11 04:07:16;;;;;;;31.23;19.90;;;6.00;99.90;;;;;;5056268;28;20455;-68
2023/02/11 04:09:44;;;;;;;32.83;19.23;;;6.00;99.90;;;;;;5053462;28;20469;-69
2023/02/11 04:12:11;;;;;;;28.93;18.97;;;6.10;99.90;;;;;;5057061;28;20881;-71
2023/02/11 04:14:38;;;;;;;36.80;18.67;;;6.10;99.90;;;;;;5055098;28;20531;-73
2023/02/11 04:17:05;;;;;;;33.37;20.23;;;6.00;99.90;;;;;;5053634;28;20538;-71
2023/02/11 04:19:33;;;;;;;33.40;19.77;;;6.00;99.90;;;;;;5059917;28;20470;-71
2023/02/11 04:22:01;;;;;;;27.27;18.03;;;6.10;99.90;;;;;;5058022;28;20463;-72
2023/02/11 04:24:28;;;;;;;27.43;19.03;;;6.10;99.90;;;;;;5052432;28;20466;-73
2023/02/11 04:26:55;;;;;;;35.73;17.23;;;6.10;99.90;;;;;;5047645;28;21081;-73
2023/02/11 04:29:23;;;;;;;30.03;18.63;;;6.10;99.90;;;;;;5049551;28;20474;-71
2023/02/11 04:31:50;;;;;;;34.80;19.60;;;6.20;99.90;;;;;;5054846;28;20992;-71
2023/02/11 04:34:17;;;;;;;28.30;18.13;;;6.20;99.90;;;;;;5050279;28;20473;-71
2023/02/11 04:36:44;;;;;;;28.90;18.07;;;6.20;99.90;;;;;;5051014;28;20467;-72
2023/02/11 04:39:13;;;;;;;31.13;19.27;;;6.20;99.90;;;;;;5054217;28;20458;-69
2023/02/11 04:41:40;;;;;;;31.00;19.80;;;6.20;99.90;;;;;;5052428;28;20887;-73
2023/02/11 04:44:07;;;;;;;25.53;17.70;;;6.10;99.90;;;;;;5055689;28;20474;-72
2023/02/11 04:46:33;;;;;;;30.60;18.83;;;6.20;99.90;;;;;;5056507;28;20460;-71
2023/02/11 04:49:00;;;;;;;35.20;19.40;;;6.20;99.90;;;;;;5052860;28;20463;-71
2023/02/11 04:51:27;;;;;;;26.53;18.60;;;6.20;99.90;;;;;;5056688;28;20459;-71
2023/02/11 04:53:54;;;;;;;36.10;21.37;;;6.20;99.90;;;;;;5056530;28;20543;-73
2023/02/11 04:56:22;;;;;;;32.07;19.07;;;6.20;99.90;;;;;;5055563;28;20615;-69
2023/02/11 04:58:48;;;;;;;32.47;19.07;;;6.10;99.90;;;;;;5057700;28;20579;-73
2023/02/11 05:01:16;;;;;;;24.57;15.27;;;6.30;99.90;;;;;;5065740;28;20458;-74
2023/02/11 05:03:43;;;;;;;24.03;16.60;;;6.20;99.90;;;;;;5051849;28;20493;-71
2023/02/11 05:06:11;;;;;;;28.73;15.40;;;6.10;99.90;;;;;;5056716;28;20469;-71
2023/02/11 05:08:38;;;;;;;32.10;19.73;;;6.00;99.90;;;;;;5056166;28;20927;-71
2023/02/11 05:11:06;;;;;;;34.50;21.53;;;6.10;99.90;;;;;;5058910;28;20479;-69
2023/02/11 05:13:35;;;;;;;36.43;21.90;;;6.00;99.90;;;;;;5060895;28;20495;-71
2023/02/11 05:16:02;;;;;;;37.43;22.90;;;6.00;99.90;;;;;;5063866;28;20464;-73
2023/02/11 05:18:29;;;;;;;35.73;21.30;;;6.10;99.90;;;;;;5051646;28;20813;-71
2023/02/11 05:20:56;;;;;;;43.73;24.00;;;6.20;99.90;;;;;;5054914;28;20529;-71
2023/02/11 05:23:23;;;;;;;40.13;22.00;;;6.10;99.90;;;;;;5058903;28;20891;-72
2023/02/11 05:25:50;;;;;;;38.60;23.10;;;6.10;99.90;;;;;;5049353;28;20464;-72
2023/02/11 05:28:16;;;;;;;42.53;23.40;;;6.20;99.90;;;;;;5057933;28;20472;-69
2023/02/11 05:30:45;;;;;;;40.33;24.17;;;6.10;99.90;;;;;;5054204;28;20468;-71
2023/02/11 05:33:12;;;;;;;35.83;21.80;;;6.10;99.90;;;;;;5054348;28;20489;-73
2023/02/11 05:35:39;;;;;;;39.40;24.00;;;6.10;99.90;;;;;;5056107;28;20477;-73
2023/02/11 05:38:06;;;;;;;38.57;23.33;;;6.10;99.90;;;;;;5051883;28;20537;-72
2023/02/11 05:40:33;;;;;;;34.17;21.53;;;6.20;99.90;;;;;;5059131;28;20462;-74
2023/02/11 05:43:00;;;;;;;35.53;21.30;;;6.10;99.90;;;;;;5057919;28;21017;-72
2023/02/11 05:45:27;;;;;;;44.07;24.23;;;6.10;99.90;;;;;;5061696;28;20594;-73
2023/02/11 05:47:57;;;;;;;38.73;22.77;;;6.10;99.90;;;;;;5060967;28;20459;-72
2023/02/11 05:50:24;;;;;;;34.90;24.70;;;6.10;99.90;;;;;;5057339;28;20460;-72
2023/02/11 05:52:51;;;;;;;44.13;24.37;;;6.10;99.90;;;;;;5054996;28;20510;-70
2023/02/11 05:55:18;;;;;;;43.57;25.60;;;6.20;99.90;;;;;;5063621;28;20475;-71
2023/02/11 05:57:45;;;;;;;45.97;25.27;;;6.20;99.90;;;;;;5058059;28;20451;-71
2023/02/11 06:00:14;;;;;;;39.23;23.50;;;6.10;99.90;;;;;;5058400;28;20903;-72
2023/02/11 06:02:41;;;;;;;53.13;27.77;;;6.10;99.90;;;;;;5057110;28;20522;-71
2023/02/11 06:05:10;;;;;;;48.97;25.57;;;6.20;99.90;;;;;;5058327;28;20470;-73
2023/02/11 06:07:37;;;;;;;46.57;25.33;;;6.10;99.90;;;;;;5053850;28;20769;-70
2023/02/11 06:10:04;;;;;;;43.50;25.47;;;6.00;99.90;;;;;;5053753;28;20466;-72
2023/02/11 06:12:31;;;;;;;65.30;27.23;;;6.00;99.90;;;;;;5050714;28;20810;-69
2023/02/11 06:14:58;;;;;;;46.43;27.70;;;6.00;99.90;;;;;;5052294;28;20503;-72
2023/02/11 06:17:25;;;;;;;44.67;29.43;;;6.00;99.90;;;;;;5059996;28;21383;-70
2023/02/11 06:19:52;;;;;;;63.63;31.57;;;6.00;99.90;;;;;;5062244;28;20474;-72
2023/02/11 06:22:21;;;;;;;45.80;28.23;;;6.10;99.90;;;;;;5061191;28;20965;-71
2023/02/11 06:24:47;;;;;;;51.00;28.50;;;6.20;99.90;;;;;;5052635;28;20681;-73
2023/02/11 06:27:14;;;;;;;56.60;28.73;;;6.10;99.90;;;;;;5051413;28;20476;-74
2023/02/11 06:29:41;;;;;;;55.33;25.80;;;6.10;99.90;;;;;;5052635;28;20953;-71
2023/02/11 06:32:08;;;;;;;45.27;24.93;;;6.10;99.90;;;;;;5057358;28;20862;-71
2023/02/11 06:34:35;;;;;;;48.23;25.00;;;6.20;99.90;;;;;;5052704;28;20870;-70
2023/02/11 06:37:03;;;;;;;40.97;22.70;;;6.10;99.90;;;;;;5061462;28;20477;-72
2023/02/11 06:39:31;;;;;;;51.03;24.97;;;6.20;99.90;;;;;;5057423;28;20502;-70
2023/02/11 06:41:58;;;;;;;48.43;25.37;;;6.10;99.90;;;;;;5054938;28;20487;-71
2023/02/11 06:44:25;;;;;;;56.23;25.20;;;6.20;99.90;;;;;;5058344;28;20815;-71
2023/02/11 06:46:52;;;;;;;46.50;25.23;;;6.20;99.90;;;;;;5055188;28;20828;-71
2023/02/11 06:49:19;;;;;;;47.93;25.63;;;6.10;99.90;;;;;;5060763;28;20463;-70
2023/02/11 06:51:46;;;;;;;48.67;25.80;;;6.20;99.90;;;;;;5048708;28;20463;-73
2023/02/11 06:54:13;;;;;;;43.23;24.37;;;6.30;99.90;;;;;;5057314;28;20498;-74
2023/02/11 06:56:42;;;;;;;41.87;24.27;;;6.30;99.90;;;;;;5051812;28;20467;-71
2023/02/11 06:59:12;;;;;;;67.17;27.23;;;6.30;99.90;;;;;;5055626;28;20790;-73
2023/02/11 07:01:39;;;;;;;56.90;28.33;;;6.20;99.90;;;;;;5065133;28;20473;-72
2023/02/11 07:04:07;;;;;;;57.87;29.13;;;6.20;99.90;;;;;;5061347;28;20496;-72
2023/02/11 07:06:36;;;;;;;56.70;28.30;;;6.20;99.90;;;;;;5050155;28;20461;-71
2023/02/11 07:09:03;;;;;;;69.07;29.63;;;6.30;99.90;;;;;;5056458;28;20462;-73
2023/02/11 07:11:30;;;;;;;62.77;28.40;;;6.30;99.90;;;;;;5061039;28;20568;-70
2023/02/11 07:14:01;;;;;;;48.43;27.90;;;6.30;99.90;;;;;;5055860;28;22375;-73
2023/02/11 07:16:28;;;;;;;53.00;27.70;;;6.30;99.90;;;;;;5061103;28;20463;-71
2023/02/11 07:18:55;;;;;;;49.87;26.93;;;6.30;99.90;;;;;;5052436;28;20647;-72
2023/02/11 07:21:23;;;;;;;50.57;27.97;;;6.30;99.90;;;;;;5054546;28;20528;-75
2023/02/11 07:23:51;;;;;;;55.63;28.43;;;6.30;99.90;;;;;;5055432;28;20458;-70
2023/02/11 07:26:20;;;;;;;52.33;28.23;;;6.30;99.90;;;;;;5054569;28;20495;-72
2023/02/11 07:28:47;;;;;;;50.87;26.23;;;6.30;99.90;;;;;;5059340;28;20455;-72
2023/02/11 07:31:17;;;;;;;53.93;27.43;;;6.30;99.90;;;;;;5058310;28;20467;-71
2023/02/11 07:33:45;;;;;;;53.80;28.77;;;6.30;99.90;;;;;;5052645;28;21008;-73
2023/02/11 07:36:13;;;;;;;59.03;26.90;;;6.40;99.90;;;;;;5056600;28;20885;-71
2023/02/11 07:38:40;;;;;;;60.23;25.57;;;6.40;99.90;;;;;;5052439;28;20474;-72
2023/02/11 07:41:09;;;;;;;45.83;26.23;;;6.40;99.90;;;;;;5052320;28;20472;-71
2023/02/11 07:43:38;;;;;;;49.50;26.37;;;6.30;99.90;;;;;;5056961;28;20468;-73
2023/02/11 07:46:05;;;;;;;49.63;27.80;;;6.40;99.90;;;;;;5060420;28;20467;-74
2023/02/11 07:48:35;;;;;;;67.23;29.20;;;6.40;99.90;;;;;;5044708;28;20466;-71
2023/02/11 07:51:07;;;;;;;63.57;27.10;;;6.40;99.90;;;;;;5048215;28;20903;-71
2023/02/11 07:53:34;;;;;;;60.17;30.73;;;6.30;99.90;;;;;;5051455;28;20497;-71
2023/02/11 07:56:01;;;;;;;57.17;28.40;;;6.30;99.90;;;;;;5063491;28;20670;-73
2023/02/11 07:58:29;;;;;;;54.70;30.23;;;6.30;99.90;;;;;;5057731;28;20472;-72
2023/02/11 08:01:01;;;;;;;56.70;28.07;;;6.30;99.90;;;;;;5046032;28;20479;-70
2023/02/11 08:03:28;;;;;;;60.07;31.90;;;6.40;99.90;;;;;;5051661;28;20528;-69
2023/02/11 08:05:56;;;;;;;57.47;30.57;;;6.40;99.90;;;;;;5051007;28;20481;-72
2023/02/11 08:08:25;;;;;;;75.27;30.27;;;6.50;99.90;;;;;;5050532;28;21907;-70
2023/02/11 08:10:52;;;;;;;46.80;25.97;;;6.50;99.90;;;;;;5053829;28;20470;-71
2023/02/11 08:13:19;;;;;;;50.40;26.70;;;6.50;99.90;;;;;;5056557;28;20482;-74
2023/02/11 08:15:46;;;;;;;53.73;28.77;;;6.50;99.90;;;;;;5057703;28;20471;-71
2023/02/11 08:18:13;;;;;;;46.90;27.67;;;6.50;99.90;;;;;;5049172;28;20547;-70
2023/02/11 08:20:39;;;;;;;48.20;23.90;;;6.50;99.90;;;;;;5048012;28;20559;-71
2023/02/11 08:23:08;;;;;;;62.57;27.73;;;6.60;99.90;;;;;;5053006;28;20451;-74
2023/02/11 08:25:36;;;;;;;53.80;26.47;;;6.70;99.90;;;;;;5049491;28;20463;-69
2023/02/11 08:28:02;;;;;;;62.37;25.30;;;6.70;99.90;;;;;;5050537;28;20471;-71
2023/02/11 08:30:29;;;;;;;53.33;27.40;;;6.70;99.90;;;;;;5048948;28;20842;-70
2023/02/11 08:32:56;;;;;;;54.53;26.63;;;6.50;99.90;;;;;;5048392;28;20471;-73
2023/02/11 08:35:24;;;;;;;47.80;27.57;;;6.60;99.90;;;;;;5048748;28;20911;-73
2023/02/11 08:37:51;;;;;;;63.10;30.00;;;6.60;99.90;;;;;;5055921;28;20479;-73
2023/02/11 08:40:20;;;;;;;58.20;28.47;;;6.60;99.90;;;;;;5062024;28;20454;-73
2023/02/11 08:42:47;;;;;;;63.83;28.87;;;6.60;99.90;;;;;;5056142;28;20488;-70
2023/02/11 08:45:15;;;;;;;67.83;30.60;;;6.70;99.90;;;;;;5059292;28;20860;-69
2023/02/11 08:47:43;;;;;;;65.93;30.13;;;6.70;99.90;;;;;;5061264;28;20462;-70
2023/02/11 08:50:10;;;;;;;70.27;32.50;;;6.70;99.90;;;;;;5057309;28;20568;-73
2023/02/11 08:52:37;;;;;;;65.87;30.30;;;6.70;99.90;;;;;;5055355;28;20587;-74
2023/02/11 08:55:04;;;;;;;81.40;32.37;;;6.70;99.90;;;;;;5061821;28;20759;-71
2023/02/11 08:57:33;;;;;;;63.23;32.37;;;6.70;99.90;;;;;;5056596;28;20773;-74
2023/02/11 08:59:59;;;;;;;69.47;30.07;;;6.70;99.90;;;;;;5054996;28;20474;-71
2023/02/11 09:02:26;;;;;;;61.40;31.93;;;6.80;99.90;;;;;;5059893;28;20972;-70
2023/02/11 09:04:53;;;;;;;56.63;30.73;;;6.80;99.90;;;;;;5067684;28;20467;-71
2023/02/11 09:07:20;;;;;;;56.80;28.83;;;6.80;99.90;;;;;;5056624;28;20984;-71
2023/02/11 09:09:47;;;;;;;57.47;30.43;;;6.90;99.90;;;;;;5054239;28;20512;-71
2023/02/11 09:12:14;;;;;;;66.53;31.00;;;6.90;99.90;;;;;;5055403;28;20821;-72
2023/02/11 09:14:43;;;;;;;56.87;29.50;;;6.90;99.90;;;;;;5053749;28;20518;-72
2023/02/11 09:17:10;;;;;;;54.07;29.27;;;6.90;99.90;;;;;;5051359;28;20474;-73
2023/02/11 09:19:37;;;;;;;69.07;29.70;;;6.90;99.90;;;;;;5061765;28;20463;-73
2023/02/11 09:22:03;;;;;;;70.20;30.80;;;7.00;99.90;;;;;;5053613;28;20474;-74
2023/02/11 09:24:30;;;;;;;72.63;31.70;;;6.90;99.90;;;;;;5043832;28;20470;-71
2023/02/11 09:26:57;;;;;;;70.63;33.13;;;6.90;99.90;;;;;;5056551;28;20467;-71
2023/02/11 09:29:24;;;;;;;57.10;30.30;;;6.80;99.90;;;;;;5058002;28;20463;-72
2023/02/11 09:31:52;;;;;;;71.53;30.00;;;6.80;99.90;;;;;;5057895;28;20811;-74
2023/02/11 09:34:19;;;;;;;71.97;30.67;;;6.90;99.90;;;;;;5060246;28;20783;-72
2023/02/11 09:36:46;;;;;;;66.93;31.90;;;6.80;99.90;;;;;;5055240;28;20470;-73
2023/02/11 09:39:14;;;;;;;58.70;31.00;;;6.90;99.90;;;;;;5040910;28;20475;-73
2023/02/11 09:42:07;;;;;;;66.07;30.20;;;6.90;99.90;;;;;;5054263;28;20490;-72
2023/02/11 09:44:35;;;;;;;57.37;29.27;;;6.80;99.90;;;;;;5052204;28;20515;-74
2023/02/11 09:47:05;;;;;;;62.03;29.87;;;6.70;99.90;;;;;;5054920;28;20475;-73
2023/02/11 09:49:39;;;;;;;65.97;28.97;;;6.80;99.90;;;;;;5054781;28;20467;-74
2023/02/11 09:52:12;;;;;;;58.60;25.60;;;6.70;99.90;;;;;;5053360;28;20467;-70
2023/02/11 09:54:51;;;;;;;64.90;29.63;;;6.70;99.90;;;;;;5055213;28;20501;-74
2023/02/11 09:57:18;;;;;;;65.57;31.43;;;6.70;99.90;;;;;;5055585;28;20508;-72
2023/02/11 09:59:48;;;;;;;61.33;28.40;;;6.80;99.90;;;;;;5056592;28;20463;-72
2023/02/11 10:02:24;;;;;;;61.03;28.97;;;6.80;99.90;;;;;;5057976;28;20483;-69
2023/02/11 10:05:12;;;;;;;78.00;29.80;;;6.70;99.90;;;;;;5056561;28;20461;-71
2023/02/11 10:07:48;;;;;;;52.30;24.10;;;6.80;99.90;;;;;;5051513;28;20467;-72
2023/02/11 10:10:27;;;;;;;65.70;29.07;;;6.70;99.90;;;;;;5050564;28;20521;-70
2023/02/11 10:13:05;;;;;;;65.20;31.60;;;6.60;99.90;;;;;;5060444;28;20469;-72
2023/02/11 10:15:42;;;;;;;71.30;31.10;;;6.70;99.90;;;;;;5061304;28;20494;-72
2023/02/11 10:18:38;;;;;;;52.43;27.37;;;6.70;99.90;;;;;;5055095;28;20494;-73
2023/02/11 10:21:14;;;;;;;65.70;30.50;;;6.70;99.90;;;;;;5055316;28;20559;-70
2023/02/11 10:23:45;;;;;;;53.00;28.87;;;6.80;99.90;;;;;;5052948;28;20464;-73
2023/02/11 10:26:14;;;;;;;57.10;26.97;;;6.80;99.90;;;;;;5059083;28;20459;-74
2023/02/11 10:28:44;;;;;;;63.80;30.13;;;6.90;99.90;;;;;;5052174;28;20820;-74
2023/02/11 10:31:14;;;;;;;61.80;29.17;;;6.80;99.90;;;;;;5048675;28;20563;-74
2023/02/11 10:33:46;;;;;;;71.63;31.03;;;6.80;99.90;;;;;;5057766;28;20488;-73
2023/02/11 10:36:14;;;;;;;65.73;29.83;;;6.90;99.90;;;;;;5049706;28;20473;-72
2023/02/11 10:38:41;;;;;;;73.23;32.87;;;7.00;99.90;;;;;;5057023;28;20455;-72
2023/02/11 10:41:13;;;;;;;67.97;31.93;;;7.00;99.90;;;;;;5052866;28;20934;-74
2023/02/11 10:43:42;;;;;;;60.97;30.47;;;7.10;99.90;;;;;;5054446;28;20879;-72
2023/02/11 10:46:17;;;;;;;71.93;31.07;;;7.20;99.90;;;;;;5055836;28;20471;-73
2023/02/11 10:48:48;;;;;;;71.63;32.90;;;7.10;99.90;;;;;;5057365;28;20837;-70
2023/02/11 10:51:19;;;;;;;76.67;31.97;;;7.10;99.90;;;;;;5054200;28;20443;-74
2023/02/11 10:53:47;;;;;;;85.50;32.00;;;7.10;99.90;;;;;;5057300;28;20470;-74
2023/02/11 10:56:22;;;;;;;58.17;32.00;;;7.00;99.90;;;;;;5043626;28;20471;-75
2023/02/11 10:58:57;;;;;;;82.33;33.00;;;7.10;99.90;;;;;;5053930;28;20458;-72
2023/02/11 11:01:37;;;;;;;72.90;31.93;;;7.10;99.90;;;;;;5047247;28;20489;-72
2023/02/11 11:04:06;;;;;;;68.77;32.70;;;7.20;99.90;;;;;;5044320;28;20491;-72
2023/02/11 11:06:35;;;;;;;55.70;26.20;;;7.20;99.90;;;;;;5046876;28;20559;-74
2023/02/11 11:09:03;;;;;;;65.80;30.10;;;7.20;99.90;;;;;;5048296;28;20463;-75
2023/02/11 11:11:30;;;;;;;65.13;33.47;;;7.20;99.90;;;;;;5046650;28;20514;-72
2023/02/11 11:13:59;;;;;;;65.80;31.63;;;7.30;99.90;;;;;;5046133;28;20579;-74
2023/02/11 11:16:27;;;;;;;64.57;30.60;;;7.40;99.90;;;;;;5051237;28;20800;-72
2023/02/11 11:19:21;;;;;;;76.00;32.10;;;7.40;99.90;;;;;;5054666;28;20470;-74
2023/02/11 11:21:50;;;;;;;68.60;31.87;;;7.50;99.90;;;;;;5052752;28;21032;-74
2023/02/11 11:24:20;;;;;;;56.40;28.23;;;7.40;99.90;;;;;;5059221;28;20550;-73
2023/02/11 11:26:50;;;;;;;59.87;27.43;;;7.40;99.90;;;;;;5054721;28;20861;-74
2023/02/11 11:29:22;;;;;;;71.13;30.13;;;7.40;99.90;;;;;;5058513;28;20469;-71
2023/02/11 11:31:53;;;;;;;66.07;32.00;;;7.40;99.90;;;;;;5052381;28;20533;-75
2023/02/11 11:34:27;;;;;;;57.50;30.17;;;7.50;99.90;;;;;;5057921;28;21020;-73
2023/02/11 11:36:56;;;;;;;68.03;31.87;;;7.50;99.90;;;;;;5056536;28;20469;-72
2023/02/11 11:39:25;;;;;;;74.43;32.60;;;7.60;99.90;;;;;;5057848;28;20463;-76
2023/02/11 11:41:56;;;;;;;67.17;30.00;;;7.70;99.90;;;;;;5049408;28;20479;-75
2023/02/11 11:44:29;;;;;;;58.40;31.30;;;7.50;99.90;;;;;;5054396;28;20520;-74
2023/02/11 11:47:24;;;;;;;58.23;30.50;;;7.60;99.90;;;;;;5051568;28;20467;-74
2023/02/11 11:50:11;;;;;;;71.50;32.00;;;7.70;99.90;;;;;;5039875;28;20464;-74
2023/02/11 11:52:44;;;;;;;73.73;31.77;;;7.50;99.90;;;;;;5055996;28;20973;-72
2023/02/11 11:55:17;;;;;;;58.53;32.63;;;7.60;99.90;;;;;;5048050;28;20490;-73
2023/02/11 11:57:45;;;;;;;59.37;29.17;;;7.70;99.90;;;;;;5048537;28;20463;-71
2023/02/11 12:00:18;;;;;;;73.90;32.97;;;7.70;99.90;;;;;;5052655;28;20941;-71
2023/02/11 12:03:19;;;;;;;66.90;32.13;;;7.80;99.90;;;;;;5057133;28;20486;-75
2023/02/11 12:05:58;;;;;;;73.20;31.50;;;7.80;99.90;;;;;;5053564;28;20464;-72
2023/02/11 12:08:35;;;;;;;74.40;33.50;;;7.90;99.90;;;;;;5055776;28;20466;-73
2023/02/11 12:11:11;;;;;;;62.37;29.70;;;7.80;99.90;;;;;;5054749;28;20463;-73
2023/02/11 12:13:48;;;;;;;79.70;36.17;;;7.80;99.90;;;;;;5057310;28;20463;-70
2023/02/11 12:16:25;;;;;;;67.13;31.77;;;7.90;99.90;;;;;;5057469;28;20490;-73
2023/02/11 12:19:17;;;;;;;80.33;37.13;;;8.00;99.90;;;;;;5057603;28;20964;-73
2023/02/11 12:21:54;;;;;;;62.07;31.27;;;8.10;99.90;;;;;;5060480;28;20466;-72
2023/02/11 12:24:35;;;;;;;69.80;34.57;;;8.00;99.90;;;;;;5054754;28;20521;-70
2023/02/11 12:27:07;;;;;;;82.20;35.77;;;8.00;99.90;;;;;;5053688;28;20467;-72
2023/02/11 12:29:52;;;;;;;76.37;33.53;;;8.10;99.90;;;;;;5057168;28;20462;-73
2023/02/11 12:32:27;;;;;;;78.43;35.90;;;8.10;99.90;;;;;;5054003;28;20477;-73
2023/02/11 12:35:19;;;;;;;81.17;37.07;;;8.00;99.90;;;;;;5055762;28;20486;-74
2023/02/11 12:38:07;;;;;;;88.40;37.67;;;8.10;99.90;;;;;;5053784;28;20458;-74
2023/02/11 12:40:42;;;;;;;77.70;33.10;;;8.10;99.90;;;;;;5056993;28;20871;-73
2023/02/11 12:43:19;;;;;;;81.67;39.20;;;8.10;99.90;;;;;;5055059;28;20482;-73
2023/02/11 12:46:01;;;;;;;83.00;31.13;;;8.20;99.90;;;;;;5055888;28;20467;-75
2023/02/11 12:48:47;;;;;;;72.27;35.30;;;8.00;99.90;;;;;;5044833;28;20471;-74
2023/02/11 12:51:27;;;;;;;77.97;35.47;;;8.10;99.90;;;;;;5062001;28;20455;-73
2023/02/11 12:54:17;;;;;;;70.30;37.23;;;8.20;99.90;;;;;;5058038;28;20473;-74
2023/02/11 12:56:51;;;;;;;68.27;32.13;;;8.10;99.90;;;;;;5055305;28;20467;-72
2023/02/11 12:59:23;;;;;;;77.63;36.10;;;8.20;99.90;;;;;;5054261;28;20466;-73